createdAt,value
2022-09-18T00:00:48.455Z,100716.09
2022-09-18T00:03:50.274Z,100720.50
2022-09-18T00:06:51.853Z,100718.75
2022-09-18T00:09:53.401Z,100725.81
2022-09-18T00:12:54.905Z,100730.19
2022-09-18T00:15:57.084Z,100726.66
2022-09-18T00:18:58.945Z,100739.84
2022-09-18T00:22:00.542Z,100743.47
2022-09-18T00:25:02.208Z,100741.00
2022-09-18T00:28:03.865Z,100739.28
2022-09-18T00:31:10.539Z,100739.56
2022-09-18T00:34:14.608Z,100731.72
2022-09-18T00:37:16.229Z,100734.56
2022-09-18T00:40:18.488Z,100732.91
2022-09-18T00:43:25.664Z,100733.00
2022-09-18T00:46:33.692Z,100732.25
2022-09-18T00:49:40.048Z,100746.50
2022-09-18T00:53:07.761Z,100753.78
2022-09-18T00:56:13.770Z,100766.16
2022-09-18T00:59:22.289Z,100764.31
2022-09-18T01:02:23.900Z,100754.53
2022-09-18T01:05:33.680Z,100756.25
2022-09-18T01:08:51.823Z,100752.63
2022-09-18T01:12:21.577Z,100750.94
2022-09-18T01:15:25.766Z,100752.63
2022-09-18T01:18:53.700Z,100746.50
2022-09-18T01:22:09.504Z,100743.06
2022-09-18T01:25:35.642Z,100740.50
2022-09-18T01:28:42.487Z,100739.84
2022-09-18T01:31:51.823Z,100752.38
2022-09-18T01:35:42.083Z,100764.91
2022-09-18T01:39:02.022Z,100743.94
2022-09-18T01:42:06.053Z,100747.63
2022-09-18T01:45:16.021Z,100742.31
2022-09-18T01:48:30.663Z,100749.53
2022-09-18T01:51:54.157Z,100747.06
2022-09-18T01:54:58.556Z,100740.91
2022-09-18T01:58:23.900Z,100736.63
2022-09-18T02:01:29.855Z,100721.72
2022-09-18T02:04:35.777Z,100735.00
2022-09-18T02:07:50.071Z,100722.69
2022-09-18T02:11:10.656Z,100718.50
2022-09-18T02:14:17.764Z,100721.91
2022-09-18T02:17:28.892Z,100715.00
2022-09-18T02:20:31.862Z,100711.50
2022-09-18T02:23:34.014Z,100717.66
2022-09-18T02:26:38.457Z,100715.97
2022-09-18T02:29:42.796Z,100714.34
2022-09-18T02:32:44.465Z,100707.53
2022-09-18T02:35:50.676Z,100706.66
2022-09-18T02:38:58.023Z,100704.19
2022-09-18T02:42:18.328Z,100699.81
2022-09-18T02:45:19.800Z,100701.72
2022-09-18T02:48:24.182Z,100697.28
2022-09-18T02:51:45.313Z,100703.63
2022-09-18T02:54:57.111Z,100706.47
2022-09-18T02:58:21.074Z,100705.81
2022-09-18T03:01:25.394Z,100703.34
2022-09-18T03:04:27.978Z,100704.44
2022-09-18T03:07:29.532Z,100701.91
2022-09-18T03:10:31.413Z,100699.34
2022-09-18T03:13:33.306Z,100700.19
2022-09-18T03:16:34.956Z,100696.78
2022-09-18T03:19:36.557Z,100703.03
2022-09-18T03:22:38.112Z,100712.81
2022-09-18T03:25:39.642Z,100715.63
2022-09-18T03:28:41.266Z,100722.94
2022-09-18T03:31:42.877Z,100723.13
2022-09-18T03:34:44.931Z,100726.63
2022-09-18T03:37:46.499Z,100723.13
2022-09-18T03:40:48.192Z,100726.72
2022-09-18T03:43:50.930Z,100726.63
2022-09-18T03:46:52.573Z,100722.25
2022-09-18T03:49:54.177Z,100724.06
2022-09-18T03:52:56.022Z,100699.25
2022-09-18T03:55:57.764Z,100698.38
2022-09-18T03:58:59.357Z,100708.88
2022-09-18T04:02:01.175Z,100701.72
2022-09-18T04:05:04.415Z,100697.34
2022-09-18T04:08:06.017Z,100699.13
2022-09-18T04:11:07.625Z,100695.63
2022-09-18T04:14:09.226Z,100700.84
2022-09-18T04:17:11.153Z,100683.91
2022-09-18T04:20:12.740Z,100679.44
2022-09-18T04:23:14.570Z,100685.59
2022-09-18T04:26:16.188Z,100695.44
2022-09-18T04:29:17.685Z,100689.38
2022-09-18T04:32:19.285Z,100685.13
2022-09-18T04:35:20.978Z,100689.56
2022-09-18T04:38:27.497Z,100684.44
2022-09-18T04:41:29.024Z,100685.28
2022-09-18T04:44:30.953Z,100671.09
2022-09-18T04:47:32.496Z,100677.25
2022-09-18T04:50:34.004Z,100674.69
2022-09-18T04:53:37.975Z,100674.69
2022-09-18T04:56:40.864Z,100668.63
2022-09-18T04:59:42.493Z,100667.84
2022-09-18T05:02:44.048Z,100670.59
2022-09-18T05:05:45.561Z,100669.75
2022-09-18T05:08:47.172Z,100669.75
2022-09-18T05:11:48.875Z,100659.13
2022-09-18T05:14:50.409Z,100656.56
2022-09-18T05:18:11.136Z,100659.31
2022-09-18T05:21:13.366Z,100666.53
2022-09-18T05:24:14.950Z,100670.13
2022-09-18T05:27:16.717Z,100664.81
2022-09-18T05:30:18.222Z,100670.97
2022-09-18T05:33:19.789Z,100666.69
2022-09-18T05:36:21.292Z,100669.34
2022-09-18T05:39:22.867Z,100685.28
2022-09-18T05:42:24.368Z,100682.50
2022-09-18T05:45:26.020Z,100687.94
2022-09-18T05:48:28.201Z,100681.75
2022-09-18T05:51:29.704Z,100682.63
2022-09-18T05:54:31.256Z,100682.63
2022-09-18T05:57:32.861Z,100684.31
2022-09-18T06:00:35.474Z,100678.06
2022-09-18T06:03:37.069Z,100677.03
2022-09-18T06:06:38.597Z,100686.50
2022-09-18T06:09:40.088Z,100686.31
2022-09-18T06:12:41.676Z,100700.94
2022-09-18T06:15:48.411Z,100700.47
2022-09-18T06:18:50.149Z,100691.19
2022-09-18T06:21:52.205Z,100682.09
2022-09-18T06:24:53.737Z,100685.63
2022-09-18T06:28:00.385Z,100691.75
2022-09-18T06:31:03.350Z,100691.69
2022-09-18T06:34:05.036Z,100682.75
2022-09-18T06:37:09.868Z,100689.78
2022-09-18T06:40:11.968Z,100704.56
2022-09-18T06:43:13.730Z,100719.38
2022-09-18T06:46:15.284Z,100730.09
2022-09-18T06:49:16.905Z,100735.00
2022-09-18T06:52:18.479Z,100727.03
2022-09-18T06:55:20.365Z,100719.06
2022-09-18T06:58:21.979Z,100681.03
2022-09-18T07:01:23.792Z,100690.81
2022-09-18T07:04:26.178Z,100683.69
2022-09-18T07:07:27.739Z,100686.34
2022-09-18T07:10:29.425Z,100677.56
2022-09-18T07:13:32.321Z,100681.81
2022-09-18T07:16:35.325Z,100676.03
2022-09-18T07:19:37.964Z,100675.03
2022-09-18T07:22:43.692Z,100667.78
2022-09-18T07:25:48.138Z,100689.84
2022-09-18T07:28:51.873Z,100692.78
2022-09-18T07:31:53.488Z,100687.78
2022-09-18T07:34:55.033Z,100696.00
2022-09-18T07:38:05.911Z,100705.19
2022-09-18T07:41:07.657Z,100725.22
2022-09-18T07:44:09.905Z,100731.09
2022-09-18T07:47:11.760Z,100717.34
2022-09-18T07:50:16.017Z,100689.91
2022-09-18T07:53:24.551Z,100690.59
2022-09-18T07:56:26.080Z,100694.69
2022-09-18T07:59:27.652Z,100688.16
2022-09-18T08:02:29.585Z,100682.44
2022-09-18T08:05:31.388Z,100685.69
2022-09-18T08:08:35.595Z,100682.72
2022-09-18T08:11:37.149Z,100676.94
2022-09-18T08:14:38.715Z,100673.75
2022-09-18T08:17:46.925Z,100672.25
2022-09-18T08:20:48.542Z,100668.84
2022-09-18T08:23:50.974Z,100675.00
2022-09-18T08:26:53.811Z,100677.66
2022-09-18T08:29:55.574Z,100670.44
2022-09-18T08:33:06.234Z,100667.78
2022-09-18T08:36:07.948Z,100678.13
2022-09-18T08:39:10.254Z,100677.69
2022-09-18T08:42:31.037Z,100662.25
2022-09-18T08:46:07.868Z,100672.56
2022-09-18T08:49:27.826Z,100664.28
2022-09-18T08:52:37.243Z,100677.94
2022-09-18T08:55:41.352Z,100689.97
2022-09-18T08:58:55.865Z,100665.91
2022-09-18T09:02:17.067Z,100658.66
2022-09-18T09:05:37.929Z,100676.44
2022-09-18T09:09:01.041Z,100684.56
2022-09-18T09:12:41.413Z,100666.00
2022-09-18T09:15:48.625Z,100647.69
2022-09-18T09:18:59.435Z,100646.97
2022-09-18T09:22:33.313Z,100645.97
2022-09-18T09:26:00.017Z,100638.84
2022-09-18T09:29:12.722Z,100648.63
2022-09-18T09:32:38.806Z,100650.16
2022-09-18T09:35:46.415Z,100664.19
2022-09-18T09:39:00.608Z,100667.81
2022-09-18T09:42:11.272Z,100655.47
2022-09-18T09:45:29.551Z,100662.72
2022-09-18T09:48:50.785Z,100651.00
2022-09-18T09:52:13.277Z,100663.78
2022-09-18T09:55:15.227Z,100661.31
2022-09-18T09:58:19.506Z,100671.72
2022-09-18T10:01:36.798Z,100661.78
2022-09-18T10:05:10.502Z,100671.13
2022-09-18T10:08:18.053Z,100656.53
2022-09-18T10:11:20.383Z,100655.19
2022-09-18T10:14:26.641Z,100664.41
2022-09-18T10:17:33.191Z,100660.38
2022-09-18T10:20:36.524Z,100660.06
2022-09-18T10:23:41.111Z,100661.41
2022-09-18T10:27:07.332Z,100659.25
2022-09-18T10:30:15.333Z,100656.13
2022-09-18T10:33:39.750Z,100657.13
2022-09-18T10:36:43.348Z,100651.91
2022-09-18T10:40:05.473Z,100663.28
2022-09-18T10:43:08.127Z,100660.06
2022-09-18T10:46:09.906Z,100664.47
2022-09-18T10:49:20.768Z,100670.78
2022-09-18T10:52:27.649Z,100673.31
2022-09-18T10:55:30.981Z,100657.31
2022-09-18T10:58:34.164Z,100660.88
2022-09-18T11:01:36.552Z,100654.34
2022-09-18T11:04:38.723Z,100645.81
2022-09-18T11:07:48.736Z,100629.56
2022-09-18T11:10:53.697Z,100637.31
2022-09-18T11:14:08.033Z,100642.81
2022-09-18T11:17:22.026Z,100640.72
2022-09-18T11:20:30.213Z,100635.81
2022-09-18T11:23:34.040Z,100639.06
2022-09-18T11:26:35.636Z,100635.50
2022-09-18T11:29:39.816Z,100627.16
2022-09-18T11:32:44.667Z,100614.03
2022-09-18T11:35:49.843Z,100617.31
2022-09-18T11:38:51.539Z,100611.50
2022-09-18T11:41:54.735Z,100605.84
2022-09-18T11:45:28.206Z,100604.50
2022-09-18T11:48:38.585Z,100625.84
2022-09-18T11:51:40.060Z,100622.22
2022-09-18T11:55:12.166Z,100618.72
2022-09-18T11:58:35.154Z,100627.28
2022-09-18T12:01:46.004Z,100621.34
2022-09-18T12:04:58.337Z,100618.81
2022-09-18T12:08:17.293Z,100617.16
2022-09-18T12:11:30.756Z,100618.34
2022-09-18T12:14:58.417Z,100618.19
2022-09-18T12:18:10.361Z,100629.63
2022-09-18T12:21:18.691Z,100612.47
2022-09-18T12:24:20.830Z,100622.50
2022-09-18T12:27:35.212Z,100627.97
2022-09-18T12:30:50.220Z,100613.41
2022-09-18T12:34:10.431Z,100606.22
2022-09-18T12:37:20.789Z,100623.59
2022-09-18T12:40:34.029Z,100615.91
2022-09-18T12:43:44.680Z,100594.06
2022-09-18T12:47:04.620Z,100607.91
2022-09-18T12:50:12.218Z,100616.41
2022-09-18T12:53:16.915Z,100609.94
2022-09-18T12:56:59.911Z,100604.34
2022-09-18T13:00:10.985Z,100602.88
2022-09-18T13:03:18.843Z,100597.69
2022-09-18T13:06:33.228Z,100587.22
2022-09-18T13:09:42.487Z,100581.81
2022-09-18T13:12:56.397Z,100590.91
2022-09-18T13:16:15.703Z,100602.47
2022-09-18T13:19:31.487Z,100612.56
2022-09-18T13:22:38.188Z,100604.44
2022-09-18T13:25:41.438Z,100620.03
2022-09-18T13:28:44.362Z,100623.34
2022-09-18T13:31:53.608Z,100608.06
2022-09-18T13:34:57.750Z,100599.28
2022-09-18T13:38:19.619Z,100598.94
2022-09-18T13:41:21.906Z,100592.88
2022-09-18T13:44:29.000Z,100594.06
2022-09-18T13:47:31.471Z,100582.16
2022-09-18T13:50:35.496Z,100570.03
2022-09-18T13:53:38.450Z,100570.41
2022-09-18T13:57:09.588Z,100542.94
2022-09-18T14:00:20.417Z,100546.69
2022-09-18T14:03:27.678Z,100551.28
2022-09-18T14:06:35.506Z,100557.09
2022-09-18T14:09:52.502Z,100558.19
2022-09-18T14:13:43.677Z,100563.78
2022-09-18T14:16:46.073Z,100554.09
2022-09-18T14:19:59.547Z,100553.81
2022-09-18T14:23:40.991Z,100546.16
2022-09-18T14:26:42.556Z,100546.63
2022-09-18T14:29:46.948Z,100551.44
2022-09-18T14:33:20.660Z,100549.00
2022-09-18T14:36:22.329Z,100548.22
2022-09-18T14:39:28.013Z,100550.25
2022-09-18T14:42:32.624Z,100552.09
2022-09-18T14:45:34.824Z,100548.69
2022-09-18T14:48:38.810Z,100547.13
2022-09-18T14:52:03.257Z,100545.91
2022-09-18T14:55:11.514Z,100530.41
2022-09-18T14:58:19.151Z,100545.50
2022-09-18T15:01:28.408Z,100574.47
2022-09-18T15:04:30.305Z,100595.56
2022-09-18T15:07:31.912Z,100590.66
2022-09-18T15:10:37.267Z,100584.50
2022-09-18T15:13:39.526Z,100577.41
2022-09-18T15:16:41.196Z,100582.53
2022-09-18T15:19:54.882Z,100558.03
2022-09-18T15:22:56.884Z,100562.47
2022-09-18T15:26:03.012Z,100557.00
2022-09-18T15:29:12.815Z,100547.78
2022-09-18T15:32:24.287Z,100533.81
2022-09-18T15:35:33.431Z,100540.22
2022-09-18T15:38:42.724Z,100543.16
2022-09-18T15:41:45.718Z,100553.06
2022-09-18T15:44:50.247Z,100541.56
2022-09-18T15:47:52.497Z,100543.38
2022-09-18T15:51:13.019Z,100528.34
2022-09-18T15:54:18.060Z,100528.47
2022-09-18T15:57:19.743Z,100535.75
2022-09-18T16:00:24.774Z,100524.31
2022-09-18T16:03:30.121Z,100519.97
2022-09-18T16:06:35.457Z,100513.66
2022-09-18T16:09:40.235Z,100510.88
2022-09-18T16:12:42.454Z,100504.47
2022-09-18T16:15:47.749Z,100498.63
2022-09-18T16:18:56.434Z,100500.81
2022-09-18T16:22:06.824Z,100484.69
2022-09-18T16:25:28.871Z,100488.94
2022-09-18T16:28:32.913Z,100491.59
2022-09-18T16:31:37.504Z,100488.22
2022-09-18T16:34:40.292Z,100483.88
2022-09-18T16:37:44.078Z,100483.72
2022-09-18T16:40:46.924Z,100485.66
2022-09-18T16:43:49.743Z,100483.38
2022-09-18T16:46:59.990Z,100490.97
2022-09-18T16:50:01.811Z,100485.28
2022-09-18T16:53:03.811Z,100494.59
2022-09-18T16:56:09.222Z,100493.34
2022-09-18T16:59:11.338Z,100495.75
2022-09-18T17:02:16.830Z,100492.56
2022-09-18T17:05:18.596Z,100492.81
2022-09-18T17:08:20.249Z,100477.88
2022-09-18T17:11:21.856Z,100470.97
2022-09-18T17:14:24.286Z,100469.28
2022-09-18T17:17:25.969Z,100480.06
2022-09-18T17:20:27.620Z,100481.91
2022-09-18T17:23:33.056Z,100480.41
2022-09-18T17:26:36.511Z,100499.19
2022-09-18T17:29:38.234Z,100493.00
2022-09-18T17:32:39.959Z,100478.00
2022-09-18T17:35:41.691Z,100476.28
2022-09-18T17:38:44.020Z,100477.03
2022-09-18T17:41:45.921Z,100478.72
2022-09-18T17:44:47.737Z,100475.94
2022-09-18T17:47:53.351Z,100483.47
2022-09-18T17:50:58.015Z,100487.25
2022-09-18T17:54:05.182Z,100491.56
2022-09-18T17:57:11.524Z,100481.25
2022-09-18T18:00:13.572Z,100509.88
2022-09-18T18:03:15.241Z,100550.81
2022-09-18T18:06:21.621Z,100535.06
2022-09-18T18:09:23.643Z,100549.56
2022-09-18T18:12:25.265Z,100559.72
2022-09-18T18:15:26.783Z,100550.25
2022-09-18T18:18:28.364Z,100544.28
2022-09-18T18:21:32.363Z,100528.44
2022-09-18T18:24:34.207Z,100528.53
2022-09-18T18:27:35.904Z,100530.44
2022-09-18T18:30:38.496Z,100543.91
2022-09-18T18:33:42.677Z,100540.59
2022-09-18T18:36:44.294Z,100543.50
2022-09-18T18:39:48.067Z,100552.59
2022-09-18T18:42:49.964Z,100561.75
2022-09-18T18:45:56.519Z,100564.63
2022-09-18T18:49:02.788Z,100558.34
2022-09-18T18:52:05.132Z,100565.59
2022-09-18T18:55:06.870Z,100578.94
2022-09-18T18:58:08.866Z,100580.59
2022-09-18T19:01:14.304Z,100591.28
2022-09-18T19:04:19.046Z,100600.25
2022-09-18T19:07:20.579Z,100601.94
2022-09-18T19:10:23.661Z,100597.44
2022-09-18T19:13:25.733Z,100607.16
2022-09-18T19:16:29.099Z,100610.69
2022-09-18T19:19:30.817Z,100616.97
2022-09-18T19:22:32.410Z,100623.25
2022-09-18T19:25:34.510Z,100630.28
2022-09-18T19:28:36.813Z,100636.25
2022-09-18T19:31:40.416Z,100639.75
2022-09-18T19:34:42.043Z,100649.34
2022-09-18T19:37:43.612Z,100654.56
2022-09-18T19:40:48.250Z,100668.00
2022-09-18T19:43:50.236Z,100667.38
2022-09-18T19:46:54.776Z,100685.28
2022-09-18T19:49:58.392Z,100690.81
2022-09-18T19:53:01.054Z,100694.56
2022-09-18T19:56:18.436Z,100695.63
2022-09-18T19:59:29.421Z,100702.09
2022-09-18T20:02:31.036Z,100704.03
2022-09-18T20:05:35.581Z,100720.22
2022-09-18T20:08:37.136Z,100712.34
2022-09-18T20:11:38.832Z,100716.00
2022-09-18T20:14:40.561Z,100723.22
2022-09-18T20:17:42.099Z,100724.28
2022-09-18T20:20:44.700Z,100725.34
2022-09-18T20:23:47.715Z,100736.22
2022-09-18T20:26:51.151Z,100740.91
2022-09-18T20:29:53.147Z,100741.84
2022-09-18T20:32:54.960Z,100742.81
2022-09-18T20:35:59.196Z,100745.38
2022-09-18T20:39:02.283Z,100744.31
2022-09-18T20:42:04.196Z,100753.91
2022-09-18T20:45:07.568Z,100756.69
2022-09-18T20:48:09.101Z,100754.75
2022-09-18T20:51:14.323Z,100755.69
2022-09-18T20:54:16.490Z,100764.53
2022-09-18T20:57:18.115Z,100762.75
2022-09-18T21:00:19.838Z,100764.53
2022-09-18T21:03:21.426Z,100768.06
2022-09-18T21:06:25.415Z,100772.44
2022-09-18T21:09:30.762Z,100777.66
2022-09-18T21:12:32.640Z,100789.16
2022-09-18T21:15:34.937Z,100786.72
2022-09-18T21:18:37.411Z,100792.25
2022-09-18T21:21:40.087Z,100790.75
2022-09-18T21:24:42.727Z,100806.94
2022-09-18T21:27:44.319Z,100801.78
2022-09-18T21:30:45.871Z,100809.00
2022-09-18T21:33:48.359Z,100805.59
2022-09-18T21:36:52.992Z,100805.81
2022-09-18T21:39:54.544Z,100808.59
2022-09-18T21:42:56.149Z,100811.56
2022-09-18T21:46:06.515Z,100817.50
2022-09-18T21:49:09.336Z,100822.53
2022-09-18T21:52:11.199Z,100821.59
2022-09-18T21:55:12.868Z,100821.91
2022-09-18T21:58:14.403Z,100830.06
2022-09-18T22:01:22.445Z,100823.16
2022-09-18T22:04:27.026Z,100838.38
2022-09-18T22:07:29.126Z,100838.94
2022-09-18T22:10:30.716Z,100838.69
2022-09-18T22:13:35.165Z,100843.28
2022-09-18T22:16:38.579Z,100850.69
2022-09-18T22:19:41.693Z,100844.03
2022-09-18T22:22:43.730Z,100855.09
2022-09-18T22:25:46.095Z,100856.47
2022-09-18T22:28:49.850Z,100857.72
2022-09-18T22:31:51.816Z,100861.72
2022-09-18T22:34:54.509Z,100867.44
2022-09-18T22:37:56.098Z,100863.47
2022-09-18T22:41:02.968Z,100874.50
2022-09-18T22:44:05.944Z,100875.84
2022-09-18T22:47:07.538Z,100875.38
2022-09-18T22:50:09.318Z,100887.25
2022-09-18T22:53:11.699Z,100886.78
2022-09-18T22:56:14.676Z,100894.22
2022-09-18T22:59:17.979Z,100895.34
2022-09-18T23:02:20.817Z,100902.78
2022-09-18T23:05:22.416Z,100904.00
2022-09-18T23:08:25.035Z,100909.59
2022-09-18T23:11:29.735Z,100907.13
2022-09-18T23:14:31.611Z,100910.06
2022-09-18T23:17:33.249Z,100924.41
2022-09-18T23:20:34.776Z,100924.69
2022-09-18T23:23:39.355Z,100930.19
2022-09-18T23:26:42.846Z,100936.66
2022-09-18T23:29:44.533Z,100936.84
2022-09-18T23:32:48.560Z,100942.44
2022-09-18T23:35:50.257Z,100937.31
2022-09-18T23:38:56.353Z,100941.09
2022-09-18T23:41:59.374Z,100945.72
2022-09-18T23:45:00.916Z,100949.53
2022-09-18T23:48:02.552Z,100956.91
2022-09-18T23:51:05.700Z,100957.09
2022-09-18T23:54:12.447Z,100946.63
2022-09-18T23:57:14.068Z,100961.81
